Time;durP1;ratioP1;P1;durP2;ratioP2;P2;SDS_P1;SDS_P2;PMS_P1;PMS_P2;Temp;Humidity;BMP_temperature;BMP_pressure;BME280_temperature;BME280_humidity;BME280_pressure;Samples;Min_cycle;Max_cycle;Signal;HPM_P1;HPM_P2
2024/04/08 07:50:52;;;;;;;;;;;;;;;5.07;100.00;99015.91;5684746;23;19935;-78
2024/04/08 07:53:17;;;;;;;;;;;;;;;5.11;100.00;99009.66;4878408;29;19966;-81
2024/04/08 07:55:43;;;;;;;;;;;;;;;5.06;100.00;99019.47;4878994;29;20395;-81
2024/04/08 07:58:08;;;;;;;;;;;;;;;5.12;100.00;99016.63;4862255;29;19930;-82
2024/04/08 08:00:34;;;;;;;;;;;;;;;5.16;100.00;99014.78;4862277;29;20014;-81
2024/04/08 08:03:00;;;;;;;;;;;;;;;5.13;100.00;99009.63;4862297;29;19924;-83
2024/04/08 08:05:25;;;;;;;;;;;;;;;5.13;100.00;99005.22;4860786;29;19931;-79
2024/04/08 08:09:16;;;;;;;;;;;;;;;5.15;100.00;98998.13;5451560;26;19999;-79
2024/04/08 08:11:42;;;;;;;;;;;;;;;5.16;100.00;98989.38;5418833;26;19941;-82
2024/04/08 08:14:08;;;;;;;;;;;;;;;5.25;100.00;98999.56;5412585;26;19937;-80
2024/04/08 08:16:33;;;;;;;;;;;;;;;5.24;100.00;99004.88;5416382;26;19941;-81
2024/04/08 08:18:58;;;;;;;;;;;;;;;5.25;100.00;99011.84;5416867;26;19929;-80
2024/04/08 08:21:23;;;;;;;;;;;;;;;5.23;100.00;99008.41;5414830;26;19933;-81
2024/04/08 08:23:49;;;;;;;;;;;;;;;5.26;100.00;99006.53;5415879;26;20360;-79
2024/04/08 08:26:14;;;;;;;;;;;;;;;5.25;100.00;99010.06;5414886;26;20311;-79
2024/04/08 08:28:39;;;;;;;;;;;;;;;5.31;100.00;99016.88;5415096;26;19937;-82
2024/04/08 08:31:04;;;;;;;;;;;;;;;5.27;100.00;99015.28;5416032;26;20017;-81
2024/04/08 08:33:31;;;;;;;;;;;;;;;5.28;100.00;99017.84;5415962;26;19929;-80
2024/04/08 08:35:56;;;;;;;;;;;;;;;5.34;100.00;99019.41;5414230;26;19930;-80
2024/04/08 08:38:21;;;;;;;;;;;;;;;5.35;100.00;99028.16;5415696;26;19962;-81
2024/04/08 08:40:54;;;;;;;;;;;;;;;5.34;100.00;99027.28;5416813;26;19936;-80
2024/04/08 08:43:21;;;;;;;;;;;;;;;5.34;100.00;99018.56;5413795;26;19941;-81
2024/04/08 08:45:47;;;;;;;;;;;;;;;5.35;100.00;99012.41;5414400;26;20319;-81
2024/04/08 08:48:13;;;;;;;;;;;;;;;5.36;100.00;99021.97;5415708;26;19979;-80
2024/04/08 08:50:38;;;;;;;;;;;;;;;5.34;100.00;99019.41;5414692;26;19929;-80
2024/04/08 08:53:08;;;;;;;;;;;;;;;5.37;100.00;99008.78;5414551;26;20253;-81
2024/04/08 08:55:33;;;;;;;;;;;;;;;5.44;100.00;99012.06;5414824;26;19929;-82
2024/04/08 08:57:59;;;;;;;;;;;;;;;5.43;100.00;99019.09;5414652;26;20347;-81
2024/04/08 09:00:24;;;;;;;;;;;;;;;5.45;100.00;99017.25;5416257;26;19998;-82
2024/04/08 09:02:51;;;;;;;;;;;;;;;5.51;100.00;99023.25;5415244;26;19942;-83
2024/04/08 09:05:16;;;;;;;;;;;;;;;5.48;100.00;99018.09;5413891;26;19929;-82
2024/04/08 09:07:41;;;;;;;;;;;;;;;5.48;100.00;99031.22;5415920;26;19936;-83
2024/04/08 09:10:07;;;;;;;;;;;;;;;5.48;100.00;99031.22;5415692;26;19930;-81
2024/04/08 09:12:32;;;;;;;;;;;;;;;5.52;100.00;99025.81;5415082;26;19999;-83
2024/04/08 09:14:57;;;;;;;;;;;;;;;5.47;100.00;99022.47;5415350;26;20339;-81
2024/04/08 09:17:22;;;;;;;;;;;;;;;5.46;100.00;99023.41;5410255;26;19966;-88
2024/04/08 09:19:48;;;;;;;;;;;;;;;5.50;100.00;99027.63;5401356;26;19937;-82
2024/04/08 09:22:13;;;;;;;;;;;;;;;5.54;100.00;99010.00;5399639;26;20442;-78
2024/04/08 09:24:42;;;;;;;;;;;;;;;5.56;100.00;99009.00;5400618;26;19936;-81
2024/04/08 09:27:10;;;;;;;;;;;;;;;5.55;100.00;99007.31;5402144;26;20229;-83
2024/04/08 09:29:36;;;;;;;;;;;;;;;5.56;100.00;99010.78;5397669;26;19935;-80
2024/04/08 09:32:02;;;;;;;;;;;;;;;5.49;100.00;99004.03;5399537;26;20276;-85
2024/04/08 09:34:28;;;;;;;;;;;;;;;5.50;100.00;99009.22;5400070;26;19936;-79
2024/04/08 09:36:57;;;;;;;;;;;;;;;5.48;100.00;99008.44;5400521;26;19929;-80
2024/04/08 09:39:23;;;;;;;;;;;;;;;5.55;100.00;99009.06;5401050;26;19929;-88
2024/04/08 09:41:51;;;;;;;;;;;;;;;5.48;100.00;99020.72;5401750;26;19929;-80
2024/04/08 09:44:17;;;;;;;;;;;;;;;5.49;100.00;99014.53;5401705;26;19929;-81
2024/04/08 09:46:45;;;;;;;;;;;;;;;5.53;100.00;99010.91;5399505;26;19929;-83
2024/04/08 09:49:11;;;;;;;;;;;;;;;5.51;100.00;99004.84;5400024;26;19998;-83
2024/04/08 09:51:40;;;;;;;;;;;;;;;5.52;100.00;99001.28;5394857;26;20381;-84
2024/04/08 09:54:06;;;;;;;;;;;;;;;5.55;100.00;99002.06;5396899;26;19940;-87
2024/04/08 09:56:33;;;;;;;;;;;;;;;5.56;100.00;98988.00;5396502;26;19941;-83
2024/04/08 09:59:04;;;;;;;;;;;;;;;5.52;100.00;98985.53;5400636;26;19936;-85
2024/04/08 10:01:29;;;;;;;;;;;;;;;12.31;100.00;98991.50;5399823;26;20268;-76
2024/04/08 10:03:58;;;;;;;;;;;;;;;9.96;100.00;98976.72;5398583;26;19998;-81
2024/04/08 10:06:24;;;;;;;;;;;;;;;7.07;100.00;98977.03;5396131;26;19956;-78
2024/04/08 10:08:49;;;;;;;;;;;;;;;6.26;100.00;98985.53;5398438;26;19933;-81
2024/04/08 10:11:16;;;;;;;;;;;;;;;6.02;100.00;98977.63;5399362;26;20038;-79
2024/04/08 10:13:48;;;;;;;;;;;;;;;5.86;100.00;98974.69;5398414;26;19929;-80
2024/04/08 10:16:14;;;;;;;;;;;;;;;5.77;100.00;98980.25;5400397;26;19937;-78
2024/04/08 10:19:05;;;;;;;;;;;;;;;5.68;100.00;98970.06;5399033;26;20355;-80
2024/04/08 10:21:34;;;;;;;;;;;;;;;5.57;100.00;98968.69;5396393;26;19944;-80
2024/04/08 10:23:59;;;;;;;;;;;;;;;5.54;100.00;98967.94;5397831;26;19929;-77
2024/04/08 10:26:26;;;;;;;;;;;;;;;5.43;100.00;98955.19;5396867;26;20263;-81
2024/04/08 10:28:51;;;;;;;;;;;;;;;5.45;100.00;98946.31;5398411;26;19929;-79
2024/04/08 10:31:19;;;;;;;;;;;;;;;5.39;100.00;98938.69;5396140;26;19936;-81
2024/04/08 10:33:44;;;;;;;;;;;;;;;5.39;100.00;98937.81;5397120;26;19929;-80
2024/04/08 10:36:09;;;;;;;;;;;;;;;5.38;100.00;98939.56;5396428;26;20361;-79
2024/04/08 10:38:35;;;;;;;;;;;;;;;5.36;100.00;98937.91;5397501;26;19929;-80
2024/04/08 10:41:06;;;;;;;;;;;;;;;5.33;100.00;98948.53;5398446;26;19929;-81
2024/04/08 10:43:32;;;;;;;;;;;;;;;5.33;100.00;98945.91;5393923;26;19936;-81
2024/04/08 10:45:58;;;;;;;;;;;;;;;5.35;100.00;98938.84;5395519;26;19933;-80
2024/04/08 10:48:23;;;;;;;;;;;;;;;5.32;100.00;98950.31;5399749;26;20301;-80
2024/04/08 10:50:48;;;;;;;;;;;;;;;5.32;100.00;98933.69;5396825;26;20357;-81
2024/04/08 10:53:14;;;;;;;;;;;;;;;5.37;100.00;98923.88;5398694;26;19929;-81
2024/04/08 10:55:39;;;;;;;;;;;;;;;5.32;100.00;98929.28;5399947;26;19929;-80
2024/04/08 10:58:04;;;;;;;;;;;;;;;5.30;100.00;98911.84;5398949;26;19930;-80
2024/04/08 11:00:30;;;;;;;;;;;;;;;5.32;100.00;98916.16;5397921;26;19941;-81
2024/04/08 11:02:56;;;;;;;;;;;;;;;5.26;100.00;98932.13;5397060;26;19941;-81
2024/04/08 11:05:21;;;;;;;;;;;;;;;5.32;100.00;98918.78;5396813;26;20356;-81
2024/04/08 11:07:47;;;;;;;;;;;;;;;5.29;100.00;98918.88;5396182;26;19936;-79
2024/04/08 11:10:13;;;;;;;;;;;;;;;5.34;100.00;98924.81;5394843;26;20368;-81
2024/04/08 11:12:38;;;;;;;;;;;;;;;5.39;100.00;98917.66;5395992;26;20348;-79
2024/04/08 11:15:04;;;;;;;;;;;;;;;5.38;100.00;98929.06;5397018;26;19937;-80
2024/04/08 11:17:29;;;;;;;;;;;;;;;5.37;100.00;98916.00;5399100;26;20326;-81
2024/04/08 11:19:56;;;;;;;;;;;;;;;5.54;100.00;98915.41;5396179;26;19936;-83
2024/04/08 11:22:21;;;;;;;;;;;;;;;5.52;100.00;98923.34;5395394;26;19998;-81
2024/04/08 11:24:46;;;;;;;;;;;;;;;5.40;100.00;98913.25;5395015;26;19938;-85
2024/04/08 11:27:12;;;;;;;;;;;;;;;5.51;100.00;98905.00;5393417;26;19938;-79
2024/04/08 11:29:41;;;;;;;;;;;;;;;5.53;100.00;98904.00;5398159;26;19937;-80
2024/04/08 11:32:08;;;;;;;;;;;;;;;5.48;100.00;98899.84;5398804;26;20245;-78
2024/04/08 11:34:33;;;;;;;;;;;;;;;5.50;100.00;98898.84;5396521;26;19929;-82
2024/04/08 11:36:59;;;;;;;;;;;;;;;5.51;100.00;98891.84;5390281;26;20430;-81
2024/04/08 11:39:24;;;;;;;;;;;;;;;5.50;100.00;98893.59;5395171;26;19940;-80
2024/04/08 11:41:49;;;;;;;;;;;;;;;5.51;100.00;98895.34;5396110;26;19929;-85
2024/04/08 11:44:14;;;;;;;;;;;;;;;5.54;100.00;98889.97;5398927;26;19929;-80
2024/04/08 11:46:40;;;;;;;;;;;;;;;5.58;100.00;98890.69;5398537;26;20352;-80
2024/04/08 11:49:05;;;;;;;;;;;;;;;5.56;100.00;98892.53;5397991;26;19936;-80
2024/04/08 11:51:30;;;;;;;;;;;;;;;5.52;100.00;98897.06;5394592;26;19957;-81
2024/04/08 11:53:55;;;;;;;;;;;;;;;5.51;100.00;98900.59;5394933;26;19934;-80
2024/04/08 11:56:21;;;;;;;;;;;;;;;5.54;100.00;98910.13;5397349;26;19998;-88
2024/04/08 11:58:46;;;;;;;;;;;;;;;5.45;100.00;98913.94;5396631;26;19967;-81
2024/04/08 12:01:12;;;;;;;;;;;;;;;5.51;100.00;98924.22;5397830;26;20297;-82
2024/04/08 12:03:37;;;;;;;;;;;;;;;5.57;100.00;98926.66;5397135;26;19940;-84
2024/04/08 12:06:04;;;;;;;;;;;;;;;5.60;100.00;98931.78;5394440;26;19937;-81
2024/04/08 12:08:31;;;;;;;;;;;;;;;5.58;100.00;98948.53;5394640;26;19999;-81
2024/04/08 12:10:56;;;;;;;;;;;;;;;5.59;100.00;98960.75;5396274;26;19940;-82
2024/04/08 12:13:24;;;;;;;;;;;;;;;5.64;100.00;98954.41;5397634;26;20365;-81
2024/04/08 12:15:50;;;;;;;;;;;;;;;5.64;100.00;98953.56;5395200;26;19933;-81
2024/04/08 12:18:15;;;;;;;;;;;;;;;5.57;100.00;98941.56;5392252;26;20019;-80
2024/04/08 12:20:40;;;;;;;;;;;;;;;5.56;100.00;98945.94;5396711;26;19949;-81
2024/04/08 12:23:07;;;;;;;;;;;;;;;5.55;100.00;98917.09;5396557;26;19929;-83
2024/04/08 12:25:33;;;;;;;;;;;;;;;5.50;100.00;98903.28;5396677;26;19938;-82
2024/04/08 12:27:58;;;;;;;;;;;;;;;5.58;100.00;98903.84;5395082;26;19937;-80
2024/04/08 12:30:23;;;;;;;;;;;;;;;5.44;100.00;98896.44;5397128;26;19938;-82
2024/04/08 12:32:48;;;;;;;;;;;;;;;5.42;100.00;98895.66;5396069;26;19933;-82
2024/04/08 12:35:14;;;;;;;;;;;;;;;5.40;100.00;98876.47;5394411;26;19929;-83
2024/04/08 12:37:39;;;;;;;;;;;;;;;5.55;100.00;98878.56;5396724;26;19932;-85
2024/04/08 12:40:05;;;;;;;;;;;;;;;5.38;100.00;98873.91;5393291;26;19936;-82
2024/04/08 12:42:30;;;;;;;;;;;;;;;5.39;100.00;98873.00;5394879;26;19938;-83
2024/04/08 12:48:01;;;;;;;;;;;;;;;5.38;100.00;98873.06;5652071;21;19925;-83
2024/04/08 12:50:27;;;;;;;;;;;;;;;5.37;100.00;98868.69;5397829;26;20253;-84
2024/04/08 12:52:52;;;;;;;;;;;;;;;5.40;100.00;98872.06;5399377;26;19929;-83
2024/04/08 12:55:17;;;;;;;;;;;;;;;5.38;100.00;98878.31;5399070;26;19930;-83
2024/04/08 12:57:43;;;;;;;;;;;;;;;5.38;100.00;98871.28;5398597;26;19940;-84
2024/04/08 13:00:11;;;;;;;;;;;;;;;5.38;100.00;98876.53;5400829;26;20260;-84
2024/04/08 13:02:37;;;;;;;;;;;;;;;5.38;100.00;98857.28;5399194;26;19999;-83
2024/04/08 13:05:02;;;;;;;;;;;;;;;5.37;100.00;98852.94;5399242;26;19945;-83
2024/04/08 13:07:27;;;;;;;;;;;;;;;5.39;100.00;98843.22;5399897;26;19929;-85
2024/04/08 13:09:53;;;;;;;;;;;;;;;5.43;100.00;98839.59;5400193;26;20369;-83
2024/04/08 13:12:20;;;;;;;;;;;;;;;5.44;100.00;98829.00;5400105;26;20361;-84
2024/04/08 13:14:45;;;;;;;;;;;;;;;5.42;100.00;98833.44;5400313;26;19933;-85
2024/04/08 13:17:11;;;;;;;;;;;;;;;5.39;100.00;98823.09;5398970;26;19941;-85
2024/04/08 13:19:36;;;;;;;;;;;;;;;5.33;100.00;98823.31;5398905;26;20402;-84
2024/04/08 13:22:01;;;;;;;;;;;;;;;5.38;100.00;98810.84;5400616;26;19936;-83
2024/04/08 13:24:27;;;;;;;;;;;;;;;5.37;100.00;98814.38;5397983;26;19929;-85
2024/04/08 13:26:52;;;;;;;;;;;;;;;5.35;100.00;98800.44;5400234;26;19929;-85
2024/04/08 13:29:18;;;;;;;;;;;;;;;5.34;100.00;98795.25;5401345;26;19936;-83
2024/04/08 13:31:43;;;;;;;;;;;;;;;5.30;100.00;98786.63;5399679;26;19937;-84
2024/04/08 13:34:08;;;;;;;;;;;;;;;5.28;100.00;98791.06;5398051;26;19929;-89
2024/04/08 13:36:34;;;;;;;;;;;;;;;5.31;100.00;98782.22;5401439;26;19944;-83
2024/04/08 13:39:00;;;;;;;;;;;;;;;5.31;100.00;98776.97;5401101;26;20301;-83
2024/04/08 13:41:25;;;;;;;;;;;;;;;5.31;100.00;98769.09;5400467;26;19941;-83
2024/04/08 13:43:51;;;;;;;;;;;;;;;5.31;100.00;98764.69;5398923;26;20293;-82
2024/04/08 13:46:16;;;;;;;;;;;;;;;5.27;100.00;98760.47;5401739;26;20006;-88
2024/04/08 13:48:43;;;;;;;;;;;;;;;5.29;100.00;98763.91;5398437;26;19946;-84
2024/04/08 13:51:08;;;;;;;;;;;;;;;5.28;100.00;98754.28;5397909;26;20249;-83
2024/04/08 13:53:33;;;;;;;;;;;;;;;5.34;100.00;98755.84;5399515;26;19970;-84
2024/04/08 13:56:02;;;;;;;;;;;;;;;5.36;100.00;98743.50;5400623;26;19969;-82
2024/04/08 13:58:27;;;;;;;;;;;;;;;5.48;100.00;98740.41;5400470;26;19929;-81
2024/04/08 14:00:53;;;;;;;;;;;;;;;5.39;100.00;98732.88;5398247;26;19999;-83
2024/04/08 14:03:18;;;;;;;;;;;;;;;5.34;100.00;98729.59;5436604;26;19936;-83
2024/04/08 14:05:43;;;;;;;;;;;;;;;5.37;100.00;98732.09;5410044;26;19937;-82
2024/04/08 14:08:08;;;;;;;;;;;;;;;5.36;100.00;98717.25;5397775;26;19937;-83
2024/04/08 14:10:34;;;;;;;;;;;;;;;5.36;100.00;98726.00;5397651;26;19943;-85
2024/04/08 14:13:00;;;;;;;;;;;;;;;5.38;100.00;98720.69;5400212;26;20375;-82
2024/04/08 14:15:26;;;;;;;;;;;;;;;5.34;100.00;98711.19;5396166;26;19929;-82
2024/04/08 14:17:51;;;;;;;;;;;;;;;5.36;100.00;98714.59;5399035;26;19929;-82
2024/04/08 14:20:16;;;;;;;;;;;;;;;5.42;100.00;98715.22;5398346;26;19929;-83
2024/04/08 14:22:41;;;;;;;;;;;;;;;5.37;100.00;98713.72;5400874;26;19941;-84
2024/04/08 14:25:07;;;;;;;;;;;;;;;5.46;100.00;98708.09;5400097;26;20360;-82
2024/04/08 14:27:32;;;;;;;;;;;;;;;5.51;100.00;98708.75;5398182;26;20371;-83
2024/04/08 14:29:57;;;;;;;;;;;;;;;5.40;100.00;98709.19;5396955;26;19937;-82
2024/04/08 14:32:22;;;;;;;;;;;;;;;5.42;100.00;98695.97;5399376;26;20002;-82
2024/04/08 14:34:47;;;;;;;;;;;;;;;5.43;100.00;98698.56;5399285;26;19929;-87
2024/04/08 14:37:13;;;;;;;;;;;;;;;5.42;100.00;98694.19;5399821;26;19937;-82
2024/04/08 14:39:38;;;;;;;;;;;;;;;5.45;100.00;98693.25;5398757;26;19933;-84
2024/04/08 14:42:03;;;;;;;;;;;;;;;5.45;100.00;98685.34;5400065;26;19936;-83
2024/04/08 14:44:29;;;;;;;;;;;;;;;5.46;100.00;98679.19;5400777;26;19945;-88
2024/04/08 14:46:54;;;;;;;;;;;;;;;5.41;100.00;98679.38;5398344;26;19976;-82
2024/04/08 14:49:19;;;;;;;;;;;;;;;5.45;100.00;98664.34;5440659;26;19933;-82
2024/04/08 14:51:44;;;;;;;;;;;;;;;5.44;100.00;98667.88;5401533;26;20268;-83
2024/04/08 14:54:09;;;;;;;;;;;;;;;5.43;100.00;98658.31;5398813;26;19962;-83
2024/04/08 14:56:35;;;;;;;;;;;;;;;5.48;100.00;98653.72;5400243;26;19936;-83
2024/04/08 14:59:00;;;;;;;;;;;;;;;5.51;100.00;98652.75;5398428;26;19936;-82
2024/04/08 15:01:25;;;;;;;;;;;;;;;5.44;100.00;98647.72;5401010;26;19941;-83
2024/04/08 15:03:52;;;;;;;;;;;;;;;5.43;100.00;98645.16;5398513;26;19936;-82
2024/04/08 15:06:18;;;;;;;;;;;;;;;5.43;100.00;98650.41;5399232;26;19929;-83
2024/04/08 15:08:43;;;;;;;;;;;;;;;5.48;100.00;98642.34;5400588;26;19936;-85
2024/04/08 15:11:08;;;;;;;;;;;;;;;5.43;100.00;98638.13;5397197;26;19997;-82
2024/04/08 15:13:34;;;;;;;;;;;;;;;5.50;100.00;98643.97;5396487;26;19929;-82
2024/04/08 15:15:59;;;;;;;;;;;;;;;5.41;100.00;98647.00;5395143;26;19936;-86
2024/04/08 15:18:27;;;;;;;;;;;;;;;5.42;100.00;98651.31;5390782;26;19929;-82
2024/04/08 15:20:53;;;;;;;;;;;;;;;5.48;100.00;98658.97;5397783;26;19961;-84
2024/04/08 15:23:18;;;;;;;;;;;;;;;5.47;100.00;98662.50;5396043;26;19930;-83
2024/04/08 15:25:43;;;;;;;;;;;;;;;5.51;100.00;98660.63;5398861;26;19941;-82
2024/04/08 15:28:08;;;;;;;;;;;;;;;5.55;100.00;98655.19;5395864;26;20264;-83
2024/04/08 15:30:34;;;;;;;;;;;;;;;5.52;100.00;98649.19;5396547;26;19929;-87
2024/04/08 15:32:59;;;;;;;;;;;;;;;5.42;100.00;98639.03;5399382;26;19935;-87
2024/04/08 15:35:24;;;;;;;;;;;;;;;5.47;100.00;98636.22;5400797;26;20249;-89
2024/04/08 15:37:51;;;;;;;;;;;;;;;5.40;100.00;98629.53;5395306;26;19937;-83
2024/04/08 15:40:16;;;;;;;;;;;;;;;5.44;100.00;98617.94;5399371;26;20364;-81
2024/04/08 15:42:42;;;;;;;;;;;;;;;5.47;100.00;98617.84;5397807;26;20025;-82
2024/04/08 15:45:08;;;;;;;;;;;;;;;5.43;100.00;98613.63;5399262;26;19930;-83
2024/04/08 15:47:36;;;;;;;;;;;;;;;5.44;100.00;98610.06;5395884;26;20676;-83
2024/04/08 15:50:03;;;;;;;;;;;;;;;5.40;100.00;98595.38;5398554;26;20433;-83
2024/04/08 15:52:28;;;;;;;;;;;;;;;5.41;100.00;98591.84;5396001;26;19940;-83
2024/04/08 15:54:53;;;;;;;;;;;;;;;5.43;100.00;98590.00;5397317;26;20368;-83
2024/04/08 15:57:18;;;;;;;;;;;;;;;5.40;100.00;98590.13;5397663;26;20363;-82
2024/04/08 15:59:46;;;;;;;;;;;;;;;5.41;100.00;98597.94;5396053;26;20268;-84
2024/04/08 16:02:11;;;;;;;;;;;;;;;5.42;100.00;98586.50;5395122;26;19929;-83
2024/04/08 16:04:39;;;;;;;;;;;;;;;5.46;100.00;98584.63;5397355;26;19979;-93
2024/04/08 16:07:04;;;;;;;;;;;;;;;5.39;100.00;98588.41;5397661;26;19929;-83
2024/04/08 16:09:30;;;;;;;;;;;;;;;5.42;100.00;98590.91;5398513;26;19957;-83
2024/04/08 16:11:55;;;;;;;;;;;;;;;5.43;100.00;98597.88;5397423;26;19930;-83
2024/04/08 16:14:21;;;;;;;;;;;;;;;5.52;100.00;98612.38;5396057;26;19931;-83
2024/04/08 16:22:27;;;;;;;;;;;;;;;5.45;100.00;98582.91;5420638;21;19925;-83
2024/04/08 16:24:55;;;;;;;;;;;;;;;5.42;100.00;98580.38;5369458;26;20352;-86
2024/04/08 16:27:21;;;;;;;;;;;;;;;5.42;100.00;98575.13;5398472;26;20363;-82
2024/04/08 16:29:46;;;;;;;;;;;;;;;5.49;100.00;98566.09;5400986;26;19932;-83
2024/04/08 16:32:11;;;;;;;;;;;;;;;5.43;100.00;98566.34;5417800;26;19929;-85
2024/04/08 16:35:06;;;;;;;;;;;;;;;5.42;100.00;98580.38;5418695;26;20786;-82
2024/04/08 16:37:51;;;;;;;;;;;;;;;5.44;100.00;98571.53;5391162;26;19929;-83
2024/04/08 16:40:16;;;;;;;;;;;;;;;5.40;100.00;98566.47;5405387;26;19936;-83
2024/04/08 16:42:42;;;;;;;;;;;;;;;5.40;100.00;98562.06;5418294;26;19929;-91
2024/04/08 16:45:07;;;;;;;;;;;;;;;5.37;100.00;98571.84;5418770;26;20359;-82
2024/04/08 16:47:32;;;;;;;;;;;;;;;7.92;100.00;98563.69;5384758;26;19929;-84
2024/04/08 16:49:57;;;;;;;;;;;;;;;7.14;100.00;98557.91;5418514;26;19936;-86
2024/04/08 16:52:22;;;;;;;;;;;;;;;6.24;100.00;98554.16;5418251;26;19928;-82
2024/04/08 16:54:48;;;;;;;;;;;;;;;6.00;100.00;98556.94;5386862;26;19929;-82
2024/04/08 16:57:13;;;;;;;;;;;;;;;5.88;100.00;98557.44;5418333;26;19935;-85
2024/04/08 17:00:18;;;;;;;;;;;;;;;5.82;100.00;98547.16;5387106;26;19929;-83
2024/04/08 17:02:43;;;;;;;;;;;;;;;5.85;100.00;98544.41;5396615;26;20003;-82
2024/04/08 17:05:08;;;;;;;;;;;;;;;5.77;100.00;98538.63;5418358;26;19929;-81
2024/04/08 17:10:36;;;;;;;;;;;;;;;5.74;100.00;98538.75;5299564;21;20263;-82
2024/04/08 17:13:01;;;;;;;;;;;;;;;5.77;100.00;98538.63;5279057;27;19934;-82
2024/04/08 17:15:27;;;;;;;;;;;;;;;5.77;100.00;98539.47;5277282;27;20366;-82
2024/04/08 17:17:52;;;;;;;;;;;;;;;5.77;100.00;98536.84;5277485;27;19942;-81
2024/04/08 17:20:17;;;;;;;;;;;;;;;5.78;100.00;98529.84;5278978;27;20266;-82
2024/04/08 17:22:44;;;;;;;;;;;;;;;5.73;100.00;98537.09;5278944;27;20006;-81
2024/04/08 17:25:10;;;;;;;;;;;;;;;5.73;100.00;98537.09;5269320;27;19938;-82
2024/04/08 17:27:35;;;;;;;;;;;;;;;5.76;100.00;98536.91;5278724;27;20274;-86
2024/04/08 17:30:00;;;;;;;;;;;;;;;5.77;100.00;98549.16;5249209;27;19938;-83
2024/04/08 17:32:25;;;;;;;;;;;;;;;5.72;100.00;98551.13;5277395;27;20283;-83
2024/04/08 17:35:21;;;;;;;;;;;;;;;;;;;;;
2024/04/08 17:37:47;;;;;;;;;;;;;;;5.71;100.00;98523.13;5271158;27;19931;-83
2024/04/08 17:40:12;;;;;;;;;;;;;;;5.71;100.00;98533.63;5248107;27;19931;-84
2024/04/08 17:42:38;;;;;;;;;;;;;;;5.75;100.00;98535.22;5278676;27;20001;-87
2024/04/08 17:45:04;;;;;;;;;;;;;;;5.73;100.00;98542.34;5278553;27;20580;-83
2024/04/08 17:47:32;;;;;;;;;;;;;;;5.69;100.00;98541.59;5277122;27;19931;-83
2024/04/08 17:49:57;;;;;;;;;;;;;;;5.65;100.00;98534.78;5278402;27;19959;-82
2024/04/08 17:52:22;;;;;;;;;;;;;;;5.71;100.00;98534.50;5278326;27;19938;-83
2024/04/08 17:54:49;;;;;;;;;;;;;;;5.73;100.00;98527.41;5278446;27;19934;-83
2024/04/08 17:57:14;;;;;;;;;;;;;;;5.72;100.00;98530.94;5278565;27;20412;-83
2024/04/08 17:59:39;;;;;;;;;;;;;;;5.73;100.00;98543.19;5278425;27;19931;-83
2024/04/08 18:02:05;;;;;;;;;;;;;;;5.72;100.00;98541.47;5276917;27;20883;-83
2024/04/08 18:04:30;;;;;;;;;;;;;;;5.74;100.00;98529.09;5278171;27;20306;-83
2024/04/08 18:06:55;;;;;;;;;;;;;;;5.72;100.00;98530.09;5278247;27;19931;-83
2024/04/08 18:09:20;;;;;;;;;;;;;;;5.73;100.00;98526.56;5277825;27;19931;-83
2024/04/08 18:11:46;;;;;;;;;;;;;;;5.72;100.00;98519.59;5248182;27;19938;-84
2024/04/08 18:14:11;;;;;;;;;;;;;;;5.71;100.00;98523.13;5278361;27;19931;-84
2024/04/08 18:16:36;;;;;;;;;;;;;;;5.70;100.00;98521.44;5276981;27;19931;-83
2024/04/08 18:19:01;;;;;;;;;;;;;;;5.64;100.00;98527.78;5277824;27;19966;-83
2024/04/08 18:21:27;;;;;;;;;;;;;;;5.69;100.00;98535.50;5277786;27;19931;-83
2024/04/08 18:23:52;;;;;;;;;;;;;;;5.68;100.00;98528.50;5248441;27;19990;-83
2024/04/08 18:26:18;;;;;;;;;;;;;;;5.71;100.00;98531.00;5248276;27;19938;-83
2024/04/08 18:28:47;;;;;;;;;;;;;;;5.72;100.00;98530.94;5247859;27;19931;-84
2024/04/08 18:31:16;;;;;;;;;;;;;;;5.64;100.00;98533.91;5278121;27;20299;-83
2024/04/08 18:33:44;;;;;;;;;;;;;;;5.69;100.00;98525.81;5276504;27;19939;-82
2024/04/08 18:36:10;;;;;;;;;;;;;;;5.73;100.00;98513.44;5277836;27;19967;-83
2024/04/08 18:38:35;;;;;;;;;;;;;;;5.68;100.00;98516.25;5277838;27;19931;-83
2024/04/08 18:41:02;;;;;;;;;;;;;;;5.71;100.00;98524.00;5247917;27;19942;-83
2024/04/08 18:43:28;;;;;;;;;;;;;;;5.63;100.00;98529.59;5277642;27;20271;-84
2024/04/08 18:45:53;;;;;;;;;;;;;;;5.72;100.00;98527.47;5248026;27;19931;-83
2024/04/08 18:48:19;;;;;;;;;;;;;;;5.69;100.00;98530.22;5246433;27;19931;-82
2024/04/08 18:50:45;;;;;;;;;;;;;;;5.71;100.00;98533.63;5276512;27;19932;-83
2024/04/08 18:53:10;;;;;;;;;;;;;;;5.70;100.00;98543.31;5276290;27;20370;-87
2024/04/08 18:55:35;;;;;;;;;;;;;;;5.62;100.00;98546.25;5277674;27;19942;-83
2024/04/08 18:58:01;;;;;;;;;;;;;;;5.69;100.00;98536.34;5277798;27;19931;-82
2024/04/08 19:00:26;;;;;;;;;;;;;;;5.66;100.00;98498.81;5277914;27;20001;-81
2024/04/08 19:02:51;;;;;;;;;;;;;;;5.64;100.00;98509.41;5276142;27;19931;-82
2024/04/08 19:05:17;;;;;;;;;;;;;;;5.57;100.00;98532.47;5277443;27;19931;-82
2024/04/08 19:07:43;;;;;;;;;;;;;;;5.65;100.00;98532.16;5247352;27;19962;-82
2024/04/08 19:10:08;;;;;;;;;;;;;;;5.67;100.00;98514.53;5253258;27;20437;-82
2024/04/08 19:12:33;;;;;;;;;;;;;;;5.72;100.00;98524.84;5291851;27;19931;-82
2024/04/08 19:14:59;;;;;;;;;;;;;;;5.60;100.00;98511.31;5291700;27;19937;-82
2024/04/08 19:17:26;;;;;;;;;;;;;;;5.65;100.00;98508.50;5279738;27;19931;-82
2024/04/08 19:19:51;;;;;;;;;;;;;;;5.67;100.00;98509.28;5291876;27;19931;-82
2024/04/08 19:22:16;;;;;;;;;;;;;;;5.68;100.00;98525.88;5277398;27;19931;-82
2024/04/08 19:24:42;;;;;;;;;;;;;;;5.65;100.00;98526.88;5277145;27;19935;-82
2024/04/08 19:27:07;;;;;;;;;;;;;;;5.70;100.00;98518.81;5260492;27;20363;-82
2024/04/08 19:29:33;;;;;;;;;;;;;;;5.67;100.00;98516.31;5284225;26;19942;-82
2024/04/08 19:31:58;;;;;;;;;;;;;;;5.62;100.00;98508.63;5258944;27;19931;-82
2024/04/08 19:34:23;;;;;;;;;;;;;;;5.62;100.00;98503.38;5258216;27;19935;-82
2024/04/08 19:36:49;;;;;;;;;;;;;;;5.63;100.00;98508.56;5277224;27;19963;-81
2024/04/08 19:39:14;;;;;;;;;;;;;;;5.67;100.00;98492.66;5260161;27;19941;-82
2024/04/08 19:41:39;;;;;;;;;;;;;;;5.64;100.00;98485.75;5259844;27;19931;-82
2024/04/08 19:44:04;;;;;;;;;;;;;;;5.63;100.00;98495.41;5260109;27;19943;-82
2024/04/08 19:46:30;;;;;;;;;;;;;;;5.66;100.00;98509.34;5300354;27;20259;-82
2024/04/08 19:48:55;;;;;;;;;;;;;;;5.67;100.00;98495.28;5256462;27;19939;-82
2024/04/08 19:51:20;;;;;;;;;;;;;;;5.67;100.00;98496.13;5277074;27;19931;-82
2024/04/08 19:53:46;;;;;;;;;;;;;;;5.64;100.00;98512.88;5276672;27;19931;-82
2024/04/08 19:56:14;;;;;;;;;;;;;;;5.63;100.00;98489.28;5276870;27;21014;-82
2024/04/08 19:58:40;;;;;;;;;;;;;;;5.65;100.00;98490.09;5290439;26;19941;-82
2024/04/08 20:01:05;;;;;;;;;;;;;;;5.63;100.00;98505.94;5290305;27;20367;-82
2024/04/08 20:03:30;;;;;;;;;;;;;;;5.66;100.00;98509.34;5287520;26;20402;-82
2024/04/08 20:05:59;;;;;;;;;;;;;;;5.62;100.00;98508.63;5258969;27;19938;-82
2024/04/08 20:08:25;;;;;;;;;;;;;;;5.67;100.00;98500.53;5276234;27;19931;-82
2024/04/08 20:10:50;;;;;;;;;;;;;;;5.61;100.00;98496.38;5319342;26;19929;-82
2024/04/08 20:13:16;;;;;;;;;;;;;;;5.62;100.00;98501.59;5328190;26;20251;-82
2024/04/08 20:15:41;;;;;;;;;;;;;;;5.60;100.00;98490.28;5327381;26;19930;-82
2024/04/08 20:18:06;;;;;;;;;;;;;;;5.59;100.00;98475.44;5326327;26;20336;-82
2024/04/08 20:20:32;;;;;;;;;;;;;;;5.61;100.00;98476.22;5328869;26;19937;-82
2024/04/08 20:22:57;;;;;;;;;;;;;;;5.62;100.00;98470.03;5327734;26;19934;-82
2024/04/08 20:25:22;;;;;;;;;;;;;;;5.58;100.00;98475.50;5327392;26;19930;-89
2024/04/08 20:27:47;;;;;;;;;;;;;;;5.60;100.00;98479.78;5327455;26;19981;-82
2024/04/08 20:30:14;;;;;;;;;;;;;;;5.61;100.00;98465.69;5298206;26;20026;-88
2024/04/08 20:32:39;;;;;;;;;;;;;;;5.67;100.00;98472.47;5325770;26;19955;-83
2024/04/08 20:35:06;;;;;;;;;;;;;;;5.64;100.00;98480.50;5327228;26;19937;-82
2024/04/08 20:37:31;;;;;;;;;;;;;;;5.58;100.00;98476.34;5328769;26;19931;-82
2024/04/08 20:39:59;;;;;;;;;;;;;;;5.68;100.00;98457.56;5297075;26;19937;-87
2024/04/08 20:42:25;;;;;;;;;;;;;;;5.68;100.00;98454.94;5296380;26;19938;-82
2024/04/08 20:44:50;;;;;;;;;;;;;;;5.69;100.00;98454.00;5326752;26;19931;-82